sensor_id;sensor_type;location;lat;lon;timestamp;pressure;altitude;pressure_sealevel;temperature;humidity
20003;BME280;10162;41.600;23.806;2023-04-20T00:02:10;94821.94;;;8.45;100.00
20003;BME280;10162;41.600;23.806;2023-04-20T00:04:39;94819.56;;;8.50;100.00
20003;BME280;10162;41.600;23.806;2023-04-20T00:07:05;94833.50;;;8.63;100.00
20003;BME280;10162;41.600;23.806;2023-04-20T00:09:31;94814.34;;;8.50;100.00
20003;BME280;10162;41.600;23.806;2023-04-20T00:12:10;94836.16;;;8.70;100.00
20003;BME280;10162;41.600;23.806;2023-04-20T00:14:36;94818.38;;;8.80;100.00
20003;BME280;10162;41.600;23.806;2023-04-20T00:17:02;94817.44;;;8.94;100.00
20003;BME280;10162;41.600;23.806;2023-04-20T00:19:30;94818.44;;;8.87;100.00
20003;BME280;10162;41.600;23.806;2023-04-20T00:22:35;94828.94;;;8.72;100.00
20003;BME280;10162;41.600;23.806;2023-04-20T00:25:02;94819.28;;;8.66;100.00
20003;BME280;10162;41.600;23.806;2023-04-20T00:27:28;94810.19;;;8.55;100.00
20003;BME280;10162;41.600;23.806;2023-04-20T00:30:26;94813.31;;;8.72;100.00
20003;BME280;10162;41.600;23.806;2023-04-20T00:32:53;94788.97;;;8.58;100.00
20003;BME280;10162;41.600;23.806;2023-04-20T00:35:19;94805.03;;;8.62;100.00
20003;BME280;10162;41.600;23.806;2023-04-20T00:37:50;94812.09;;;8.40;100.00
20003;BME280;10162;41.600;23.806;2023-04-20T00:43:19;94799.69;;;8.00;100.00
20003;BME280;10162;41.600;23.806;2023-04-20T00:45:45;94791.41;;;7.89;100.00
20003;BME280;10162;41.600;23.806;2023-04-20T00:48:12;94789.72;;;7.82;100.00
20003;BME280;10162;41.600;23.806;2023-04-20T00:51:06;94796.84;;;7.95;100.00
20003;BME280;10162;41.600;23.806;2023-04-20T00:53:35;94794.31;;;7.80;100.00
20003;BME280;10162;41.600;23.806;2023-04-20T00:56:01;94800.69;;;7.77;100.00
20003;BME280;10162;41.600;23.806;2023-04-20T00:58:29;94804.75;;;7.44;100.00
20003;BME280;10162;41.600;23.806;2023-04-20T01:01:04;94803.94;;;7.43;100.00
20003;BME280;10162;41.600;23.806;2023-04-20T01:03:30;94803.34;;;7.27;100.00
20003;BME280;10162;41.600;23.806;2023-04-20T01:05:56;94790.97;;;7.29;100.00
20003;BME280;10162;41.600;23.806;2023-04-20T01:08:25;94770.69;;;7.24;100.00
20003;BME280;10162;41.600;23.806;2023-04-20T01:10:55;94796.94;;;7.44;100.00
20003;BME280;10162;41.600;23.806;2023-04-20T01:13:23;94803.72;;;7.09;100.00
20003;BME280;10162;41.600;23.806;2023-04-20T01:15:49;94771.84;;;6.86;100.00
20003;BME280;10162;41.600;23.806;2023-04-20T01:18:15;94788.06;;;6.88;100.00
20003;BME280;10162;41.600;23.806;2023-04-20T01:20:46;94785.81;;;6.70;100.00
20003;BME280;10162;41.600;23.806;2023-04-20T01:23:12;94791.81;;;6.71;100.00
20003;BME280;10162;41.600;23.806;2023-04-20T01:25:38;94790.75;;;6.65;100.00
20003;BME280;10162;41.600;23.806;2023-04-20T01:28:04;94795.31;;;6.63;100.00
20003;BME280;10162;41.600;23.806;2023-04-20T01:30:53;94790.72;;;6.50;100.00
20003;BME280;10162;41.600;23.806;2023-04-20T01:33:19;94791.09;;;6.62;100.00
20003;BME280;10162;41.600;23.806;2023-04-20T01:35:45;94787.63;;;6.70;100.00
20003;BME280;10162;41.600;23.806;2023-04-20T01:38:18;94779.03;;;6.54;100.00
20003;BME280;10162;41.600;23.806;2023-04-20T01:40:47;94782.84;;;6.73;100.00
20003;BME280;10162;41.600;23.806;2023-04-20T01:43:14;94770.69;;;6.59;100.00
20003;BME280;10162;41.600;23.806;2023-04-20T01:45:40;94778.91;;;6.62;100.00
20003;BME280;10162;41.600;23.806;2023-04-20T01:48:06;94772.31;;;6.60;100.00
20003;BME280;10162;41.600;23.806;2023-04-20T01:50:53;94782.06;;;6.58;100.00
20003;BME280;10162;41.600;23.806;2023-04-20T01:53:18;94777.56;;;6.52;100.00
20003;BME280;10162;41.600;23.806;2023-04-20T01:55:46;94789.03;;;6.72;100.00
20003;BME280;10162;41.600;23.806;2023-04-20T01:58:13;94782.34;;;6.78;100.00
20003;BME280;10162;41.600;23.806;2023-04-20T02:00:39;94760.91;;;6.90;100.00
20003;BME280;10162;41.600;23.806;2023-04-20T02:03:09;94772.91;;;7.06;100.00
20003;BME280;10162;41.600;23.806;2023-04-20T02:05:35;94766.09;;;6.61;100.00
20003;BME280;10162;41.600;23.806;2023-04-20T02:08:01;94767.63;;;6.55;100.00
20003;BME280;10162;41.600;23.806;2023-04-20T02:10:27;94776.75;;;6.37;100.00
20003;BME280;10162;41.600;23.806;2023-04-20T02:12:53;94773.91;;;6.46;100.00
20003;BME280;10162;41.600;23.806;2023-04-20T02:15:19;94768.78;;;6.23;100.00
20003;BME280;10162;41.600;23.806;2023-04-20T02:17:46;94765.38;;;6.23;100.00
20003;BME280;10162;41.600;23.806;2023-04-20T02:20:17;94774.31;;;6.20;100.00
20003;BME280;10162;41.600;23.806;2023-04-20T02:22:49;94768.06;;;6.15;100.00
20003;BME280;10162;41.600;23.806;2023-04-20T02:25:16;94768.59;;;6.40;100.00
20003;BME280;10162;41.600;23.806;2023-04-20T02:27:45;94774.53;;;6.48;100.00
20003;BME280;10162;41.600;23.806;2023-04-20T02:30:15;94767.44;;;6.57;100.00
20003;BME280;10162;41.600;23.806;2023-04-20T02:32:41;94789.09;;;6.49;100.00
20003;BME280;10162;41.600;23.806;2023-04-20T02:35:08;94767.13;;;6.60;100.00
20003;BME280;10162;41.600;23.806;2023-04-20T02:37:34;94782.97;;;6.65;100.00
20003;BME280;10162;41.600;23.806;2023-04-20T02:40:07;94780.97;;;6.38;100.00
20003;BME280;10162;41.600;23.806;2023-04-20T02:42:33;94786.13;;;6.23;100.00
20003;BME280;10162;41.600;23.806;2023-04-20T02:45:01;94773.56;;;6.12;100.00
20003;BME280;10162;41.600;23.806;2023-04-20T02:47:29;94769.44;;;6.03;100.00
20003;BME280;10162;41.600;23.806;2023-04-20T02:49:56;94781.34;;;5.97;100.00
20003;BME280;10162;41.600;23.806;2023-04-20T02:52:24;94770.75;;;5.99;100.00
20003;BME280;10162;41.600;23.806;2023-04-20T02:54:50;94759.25;;;5.78;100.00
20003;BME280;10162;41.600;23.806;2023-04-20T02:57:17;94784.66;;;6.06;100.00
20003;BME280;10162;41.600;23.806;2023-04-20T02:59:51;94786.97;;;5.78;100.00
20003;BME280;10162;41.600;23.806;2023-04-20T03:02:24;94794.75;;;6.01;100.00
20003;BME280;10162;41.600;23.806;2023-04-20T03:04:52;94787.91;;;6.22;100.00
20003;BME280;10162;41.600;23.806;2023-04-20T03:07:19;94786.22;;;6.15;100.00
20003;BME280;10162;41.600;23.806;2023-04-20T03:09:47;94792.50;;;6.20;100.00
20003;BME280;10162;41.600;23.806;2023-04-20T03:12:23;94800.34;;;6.27;100.00
20003;BME280;10162;41.600;23.806;2023-04-20T03:15:09;94775.97;;;6.51;100.00
20003;BME280;10162;41.600;23.806;2023-04-20T03:17:54;94790.31;;;6.76;100.00
20003;BME280;10162;41.600;23.806;2023-04-20T03:20:20;94770.22;;;6.41;100.00
20003;BME280;10162;41.600;23.806;2023-04-20T03:22:46;94787.25;;;6.73;100.00
20003;BME280;10162;41.600;23.806;2023-04-20T03:25:12;94799.00;;;6.83;100.00
20003;BME280;10162;41.600;23.806;2023-04-20T03:27:52;94789.03;;;6.87;100.00
20003;BME280;10162;41.600;23.806;2023-04-20T03:30:44;94799.53;;;6.93;100.00
20003;BME280;10162;41.600;23.806;2023-04-20T03:33:14;94769.16;;;6.79;100.00
20003;BME280;10162;41.600;23.806;2023-04-20T03:35:40;94784.09;;;7.06;100.00
20003;BME280;10162;41.600;23.806;2023-04-20T03:38:08;94776.84;;;7.02;100.00
20003;BME280;10162;41.600;23.806;2023-04-20T03:40:43;94804.53;;;7.10;100.00
20003;BME280;10162;41.600;23.806;2023-04-20T03:43:09;94782.97;;;6.94;100.00
20003;BME280;10162;41.600;23.806;2023-04-20T03:45:36;94798.59;;;7.01;100.00
20003;BME280;10162;41.600;23.806;2023-04-20T03:48:03;94793.75;;;7.13;100.00
20003;BME280;10162;41.600;23.806;2023-04-20T03:50:29;94801.94;;;7.10;100.00
20003;BME280;10162;41.600;23.806;2023-04-20T03:52:56;94792.63;;;7.00;100.00
20003;BME280;10162;41.600;23.806;2023-04-20T03:55:22;94809.28;;;7.06;100.00
20003;BME280;10162;41.600;23.806;2023-04-20T03:57:55;94780.06;;;6.89;100.00
20003;BME280;10162;41.600;23.806;2023-04-20T04:00:22;94801.28;;;7.07;100.00
20003;BME280;10162;41.600;23.806;2023-04-20T04:02:57;94802.56;;;6.97;100.00
20003;BME280;10162;41.600;23.806;2023-04-20T04:05:26;94787.94;;;7.11;100.00
20003;BME280;10162;41.600;23.806;2023-04-20T04:07:52;94795.22;;;6.86;100.00
20003;BME280;10162;41.600;23.806;2023-04-20T04:10:27;94812.88;;;6.76;100.00
20003;BME280;10162;41.600;23.806;2023-04-20T04:12:53;94817.88;;;7.06;100.00
20003;BME280;10162;41.600;23.806;2023-04-20T04:15:20;94802.19;;;7.15;100.00
20003;BME280;10162;41.600;23.806;2023-04-20T04:17:53;94810.09;;;6.92;100.00
20003;BME280;10162;41.600;23.806;2023-04-20T04:20:26;94814.16;;;6.94;100.00
20003;BME280;10162;41.600;23.806;2023-04-20T04:22:52;94820.31;;;7.23;100.00
20003;BME280;10162;41.600;23.806;2023-04-20T04:25:30;94814.88;;;7.39;100.00
20003;BME280;10162;41.600;23.806;2023-04-20T04:27:56;94821.75;;;7.61;100.00
20003;BME280;10162;41.600;23.806;2023-04-20T04:30:23;94808.56;;;7.63;100.00
20003;BME280;10162;41.600;23.806;2023-04-20T04:32:50;94817.59;;;7.67;100.00
20003;BME280;10162;41.600;23.806;2023-04-20T04:35:16;94812.22;;;7.68;100.00
20003;BME280;10162;41.600;23.806;2023-04-20T04:37:44;94808.00;;;7.67;100.00
20003;BME280;10162;41.600;23.806;2023-04-20T04:40:34;94825.81;;;7.85;100.00
20003;BME280;10162;41.600;23.806;2023-04-20T04:43:03;94830.06;;;7.93;100.00
20003;BME280;10162;41.600;23.806;2023-04-20T04:45:29;94821.50;;;7.99;100.00
20003;BME280;10162;41.600;23.806;2023-04-20T04:47:56;94831.25;;;8.33;100.00
20003;BME280;10162;41.600;23.806;2023-04-20T04:50:26;94823.31;;;7.98;100.00
20003;BME280;10162;41.600;23.806;2023-04-20T04:52:53;94817.84;;;7.93;100.00
20003;BME280;10162;41.600;23.806;2023-04-20T04:55:19;94815.56;;;7.83;100.00
20003;BME280;10162;41.600;23.806;2023-04-20T04:57:45;94834.28;;;7.94;100.00
20003;BME280;10162;41.600;23.806;2023-04-20T05:00:13;94822.63;;;7.89;100.00
20003;BME280;10162;41.600;23.806;2023-04-20T05:02:40;94842.34;;;7.99;100.00
20003;BME280;10162;41.600;23.806;2023-04-20T05:05:06;94839.00;;;8.05;100.00
20003;BME280;10162;41.600;23.806;2023-04-20T05:07:33;94830.50;;;8.17;100.00
20003;BME280;10162;41.600;23.806;2023-04-20T05:13:08;94835.53;;;8.40;100.00
20003;BME280;10162;41.600;23.806;2023-04-20T05:15:34;94825.75;;;8.49;100.00
20003;BME280;10162;41.600;23.806;2023-04-20T05:18:00;94845.03;;;8.48;100.00
20003;BME280;10162;41.600;23.806;2023-04-20T05:20:27;94832.59;;;8.78;100.00
20003;BME280;10162;41.600;23.806;2023-04-20T05:22:53;94839.38;;;8.72;100.00
20003;BME280;10162;41.600;23.806;2023-04-20T05:25:19;94832.06;;;8.61;100.00
20003;BME280;10162;41.600;23.806;2023-04-20T05:27:47;94846.44;;;8.78;100.00
20003;BME280;10162;41.600;23.806;2023-04-20T05:33:03;94834.31;;;8.64;100.00
20003;BME280;10162;41.600;23.806;2023-04-20T05:35:29;94833.78;;;8.75;100.00
20003;BME280;10162;41.600;23.806;2023-04-20T05:37:55;94845.09;;;8.89;100.00
20003;BME280;10162;41.600;23.806;2023-04-20T05:40:26;94839.31;;;8.93;100.00
20003;BME280;10162;41.600;23.806;2023-04-20T05:42:52;94852.00;;;9.03;100.00
20003;BME280;10162;41.600;23.806;2023-04-20T05:45:18;94852.38;;;9.00;100.00
20003;BME280;10162;41.600;23.806;2023-04-20T05:47:54;94844.94;;;8.97;100.00
20003;BME280;10162;41.600;23.806;2023-04-20T05:50:27;94840.53;;;8.97;100.00
20003;BME280;10162;41.600;23.806;2023-04-20T05:52:54;94831.50;;;8.93;100.00
20003;BME280;10162;41.600;23.806;2023-04-20T05:55:19;94834.13;;;8.93;100.00
20003;BME280;10162;41.600;23.806;2023-04-20T05:57:46;94827.81;;;8.81;100.00
20003;BME280;10162;41.600;23.806;2023-04-20T06:00:17;94828.28;;;8.63;100.00
20003;BME280;10162;41.600;23.806;2023-04-20T06:02:43;94834.38;;;8.43;100.00
20003;BME280;10162;41.600;23.806;2023-04-20T06:05:09;94828.91;;;8.93;100.00
20003;BME280;10162;41.600;23.806;2023-04-20T06:07:36;94828.81;;;9.62;100.00
20003;BME280;10162;41.600;23.806;2023-04-20T06:10:05;94827.34;;;10.20;100.00
20003;BME280;10162;41.600;23.806;2023-04-20T06:12:33;94830.59;;;10.42;100.00
20003;BME280;10162;41.600;23.806;2023-04-20T06:15:00;94839.25;;;10.36;100.00
20003;BME280;10162;41.600;23.806;2023-04-20T06:17:26;94837.16;;;10.05;100.00
20003;BME280;10162;41.600;23.806;2023-04-20T06:19:52;94835.63;;;10.44;100.00
20003;BME280;10162;41.600;23.806;2023-04-20T06:22:18;94845.69;;;10.47;100.00
20003;BME280;10162;41.600;23.806;2023-04-20T06:24:44;94835.59;;;10.17;100.00
20003;BME280;10162;41.600;23.806;2023-04-20T06:27:11;94843.22;;;10.25;100.00
20003;BME280;10162;41.600;23.806;2023-04-20T06:29:37;94840.97;;;10.09;100.00
20003;BME280;10162;41.600;23.806;2023-04-20T06:32:04;94844.03;;;10.26;100.00
20003;BME280;10162;41.600;23.806;2023-04-20T06:34:30;94845.47;;;10.61;100.00
20003;BME280;10162;41.600;23.806;2023-04-20T06:37:08;94860.16;;;10.75;100.00
20003;BME280;10162;41.600;23.806;2023-04-20T06:39:34;94842.66;;;10.63;100.00
20003;BME280;10162;41.600;23.806;2023-04-20T06:42:11;94853.50;;;10.86;100.00
20003;BME280;10162;41.600;23.806;2023-04-20T06:44:39;94854.28;;;11.06;100.00
20003;BME280;10162;41.600;23.806;2023-04-20T06:47:05;94856.84;;;11.33;100.00
20003;BME280;10162;41.600;23.806;2023-04-20T06:49:31;94859.19;;;11.54;100.00
20003;BME280;10162;41.600;23.806;2023-04-20T06:52:02;94848.25;;;11.70;100.00
20003;BME280;10162;41.600;23.806;2023-04-20T06:54:28;94854.81;;;11.35;100.00
20003;BME280;10162;41.600;23.806;2023-04-20T06:56:54;94862.63;;;11.48;100.00
20003;BME280;10162;41.600;23.806;2023-04-20T06:59:20;94847.03;;;11.22;100.00
20003;BME280;10162;41.600;23.806;2023-04-20T07:01:46;94862.00;;;11.59;100.00
20003;BME280;10162;41.600;23.806;2023-04-20T07:04:12;94843.22;;;11.04;100.00
20003;BME280;10162;41.600;23.806;2023-04-20T07:06:38;94846.41;;;11.13;100.00
20003;BME280;10162;41.600;23.806;2023-04-20T07:09:05;94868.06;;;11.46;100.00
20003;BME280;10162;41.600;23.806;2023-04-20T07:11:32;94855.41;;;11.43;100.00
20003;BME280;10162;41.600;23.806;2023-04-20T07:13:58;94830.44;;;11.41;100.00
20003;BME280;10162;41.600;23.806;2023-04-20T07:16:24;94831.16;;;11.03;100.00
20003;BME280;10162;41.600;23.806;2023-04-20T07:18:50;94866.25;;;11.53;100.00
20003;BME280;10162;41.600;23.806;2023-04-20T07:21:16;94839.88;;;11.55;100.00
20003;BME280;10162;41.600;23.806;2023-04-20T07:23:42;94870.50;;;11.99;100.00
20003;BME280;10162;41.600;23.806;2023-04-20T07:26:08;94856.19;;;12.64;100.00
20003;BME280;10162;41.600;23.806;2023-04-20T07:28:33;94855.19;;;12.34;100.00
20003;BME280;10162;41.600;23.806;2023-04-20T07:30:59;94850.19;;;12.26;100.00
20003;BME280;10162;41.600;23.806;2023-04-20T07:33:25;94848.69;;;13.17;100.00
20003;BME280;10162;41.600;23.806;2023-04-20T07:35:52;94842.19;;;13.20;100.00
20003;BME280;10162;41.600;23.806;2023-04-20T07:38:18;94846.22;;;13.59;93.08
20003;BME280;10162;41.600;23.806;2023-04-20T07:41:11;94856.66;;;13.95;84.71
20003;BME280;10162;41.600;23.806;2023-04-20T07:43:38;94844.59;;;13.76;83.83
20003;BME280;10162;41.600;23.806;2023-04-20T07:46:04;94830.19;;;13.06;90.59
20003;BME280;10162;41.600;23.806;2023-04-20T07:48:32;94840.59;;;13.37;92.94
20003;BME280;10162;41.600;23.806;2023-04-20T07:50:59;94820.25;;;13.33;92.46
20003;BME280;10162;41.600;23.806;2023-04-20T07:53:26;94819.22;;;12.91;98.60
20003;BME280;10162;41.600;23.806;2023-04-20T07:55:52;94844.91;;;12.64;97.22
20003;BME280;10162;41.600;23.806;2023-04-20T07:58:18;94850.78;;;12.84;97.54
20003;BME280;10162;41.600;23.806;2023-04-20T08:00:51;94838.50;;;12.78;96.00
20003;BME280;10162;41.600;23.806;2023-04-20T08:03:17;94829.28;;;12.75;95.57
20003;BME280;10162;41.600;23.806;2023-04-20T08:05:43;94818.97;;;12.74;95.18
20003;BME280;10162;41.600;23.806;2023-04-20T08:08:09;94822.97;;;12.76;94.27
20003;BME280;10162;41.600;23.806;2023-04-20T08:10:34;94793.88;;;12.60;96.07
20003;BME280;10162;41.600;23.806;2023-04-20T08:13:01;94811.88;;;12.56;98.37
20003;BME280;10162;41.600;23.806;2023-04-20T08:15:26;94815.28;;;12.57;95.84
20003;BME280;10162;41.600;23.806;2023-04-20T08:17:53;94818.41;;;12.47;98.68
20003;BME280;10162;41.600;23.806;2023-04-20T08:20:19;94805.59;;;12.32;99.48
20003;BME280;10162;41.600;23.806;2023-04-20T08:22:46;94802.38;;;12.55;100.00
20003;BME280;10162;41.600;23.806;2023-04-20T08:25:11;94795.06;;;12.08;100.00
20003;BME280;10162;41.600;23.806;2023-04-20T08:27:38;94797.81;;;12.19;100.00
20003;BME280;10162;41.600;23.806;2023-04-20T08:30:04;94796.47;;;12.41;100.00
20003;BME280;10162;41.600;23.806;2023-04-20T08:32:33;94811.19;;;12.36;100.00
20003;BME280;10162;41.600;23.806;2023-04-20T08:35:00;94787.16;;;12.46;97.94
20003;BME280;10162;41.600;23.806;2023-04-20T08:37:26;94782.84;;;12.76;96.10
20003;BME280;10162;41.600;23.806;2023-04-20T08:39:52;94782.97;;;12.63;97.01
20003;BME280;10162;41.600;23.806;2023-04-20T08:42:19;94799.06;;;12.66;96.93
20003;BME280;10162;41.600;23.806;2023-04-20T08:44:45;94779.59;;;12.99;95.79
20003;BME280;10162;41.600;23.806;2023-04-20T08:47:13;94783.66;;;13.38;92.61
20003;BME280;10162;41.600;23.806;2023-04-20T08:49:41;94788.78;;;13.44;93.22
20003;BME280;10162;41.600;23.806;2023-04-20T08:52:10;94778.38;;;12.76;94.43
20003;BME280;10162;41.600;23.806;2023-04-20T08:54:36;94785.47;;;13.55;91.81
20003;BME280;10162;41.600;23.806;2023-04-20T08:57:04;94764.16;;;13.75;88.03
20003;BME280;10162;41.600;23.806;2023-04-20T08:59:30;94782.97;;;14.32;90.17
20003;BME280;10162;41.600;23.806;2023-04-20T09:02:07;94780.44;;;14.25;87.14
20003;BME280;10162;41.600;23.806;2023-04-20T09:04:34;94778.81;;;14.77;84.41
20003;BME280;10162;41.600;23.806;2023-04-20T09:07:00;94782.19;;;15.36;82.71
20003;BME280;10162;41.600;23.806;2023-04-20T09:09:27;94773.53;;;14.54;82.19
20003;BME280;10162;41.600;23.806;2023-04-20T09:12:04;94782.94;;;14.97;79.26
20003;BME280;10162;41.600;23.806;2023-04-20T09:14:44;94787.50;;;15.76;71.89
20003;BME280;10162;41.600;23.806;2023-04-20T09:17:12;94776.59;;;16.01;74.63
20003;BME280;10162;41.600;23.806;2023-04-20T09:19:39;94763.56;;;15.26;73.85
20003;BME280;10162;41.600;23.806;2023-04-20T09:22:06;94766.16;;;15.38;70.34
20003;BME280;10162;41.600;23.806;2023-04-20T09:24:37;94747.81;;;16.28;66.37
20003;BME280;10162;41.600;23.806;2023-04-20T09:27:17;94768.81;;;16.68;68.21
20003;BME280;10162;41.600;23.806;2023-04-20T09:29:58;94768.31;;;17.09;64.51
20003;BME280;10162;41.600;23.806;2023-04-20T09:32:29;94752.69;;;17.24;63.97
20003;BME280;10162;41.600;23.806;2023-04-20T09:34:56;94742.19;;;17.51;63.20
20003;BME280;10162;41.600;23.806;2023-04-20T09:37:22;94737.59;;;17.63;62.22
20003;BME280;10162;41.600;23.806;2023-04-20T09:40:11;94763.84;;;17.10;61.33
20003;BME280;10162;41.600;23.806;2023-04-20T09:42:40;94741.59;;;16.84;61.19
20003;BME280;10162;41.600;23.806;2023-04-20T09:45:07;94745.91;;;16.90;62.08
20003;BME280;10162;41.600;23.806;2023-04-20T09:47:34;94752.38;;;16.82;60.61
20003;BME280;10162;41.600;23.806;2023-04-20T09:50:13;94754.44;;;16.30;60.48
20003;BME280;10162;41.600;23.806;2023-04-20T09:52:44;94762.78;;;16.56;61.19
20003;BME280;10162;41.600;23.806;2023-04-20T09:55:13;94757.50;;;16.56;61.58
20003;BME280;10162;41.600;23.806;2023-04-20T09:57:40;94746.06;;;16.50;60.16
20003;BME280;10162;41.600;23.806;2023-04-20T10:03:41;94732.00;;;16.78;58.38
20003;BME280;10162;41.600;23.806;2023-04-20T10:08:54;94725.56;;;16.40;58.69
20003;BME280;10162;41.600;23.806;2023-04-20T10:11:40;94739.25;;;16.21;58.55
20003;BME280;10162;41.600;23.806;2023-04-20T10:16:56;94731.09;;;15.49;58.23
20003;BME280;10162;41.600;23.806;2023-04-20T10:19:22;94724.38;;;15.29;58.36
20003;BME280;10162;41.600;23.806;2023-04-20T10:21:50;94729.28;;;15.38;61.35
20003;BME280;10162;41.600;23.806;2023-04-20T10:24:28;94729.78;;;15.23;60.60
20003;BME280;10162;41.600;23.806;2023-04-20T10:26:55;94717.66;;;15.10;60.98
20003;BME280;10162;41.600;23.806;2023-04-20T10:29:30;94743.81;;;15.40;61.38
20003;BME280;10162;41.600;23.806;2023-04-20T10:31:56;94726.84;;;15.48;62.99
20003;BME280;10162;41.600;23.806;2023-04-20T10:34:33;94733.88;;;15.30;61.29
20003;BME280;10162;41.600;23.806;2023-04-20T10:37:09;94732.44;;;15.11;61.31
20003;BME280;10162;41.600;23.806;2023-04-20T10:39:36;94743.97;;;15.10;60.45
20003;BME280;10162;41.600;23.806;2023-04-20T10:42:02;94732.13;;;14.96;62.05
20003;BME280;10162;41.600;23.806;2023-04-20T10:44:29;94743.75;;;15.23;60.67
20003;BME280;10162;41.600;23.806;2023-04-20T10:47:00;94750.75;;;15.06;59.64
20003;BME280;10162;41.600;23.806;2023-04-20T10:49:26;94733.72;;;15.09;60.39
20003;BME280;10162;41.600;23.806;2023-04-20T10:51:55;94733.09;;;15.18;60.09
20003;BME280;10162;41.600;23.806;2023-04-20T10:54:21;94743.00;;;15.40;60.89
20003;BME280;10162;41.600;23.806;2023-04-20T10:56:48;94757.13;;;15.74;62.52
20003;BME280;10162;41.600;23.806;2023-04-20T10:59:23;94747.53;;;15.67;60.87
20003;BME280;10162;41.600;23.806;2023-04-20T11:01:50;94754.41;;;15.17;59.64
20003;BME280;10162;41.600;23.806;2023-04-20T11:04:35;94755.81;;;15.48;56.05
20003;BME280;10162;41.600;23.806;2023-04-20T11:07:06;94757.31;;;14.92;56.46
20003;BME280;10162;41.600;23.806;2023-04-20T11:09:34;94750.88;;;15.51;54.29
20003;BME280;10162;41.600;23.806;2023-04-20T11:14:54;94746.03;;;16.00;53.75
20003;BME280;10162;41.600;23.806;2023-04-20T11:17:31;94740.38;;;15.40;53.73
20003;BME280;10162;41.600;23.806;2023-04-20T11:20:12;94736.84;;;16.19;52.06
20003;BME280;10162;41.600;23.806;2023-04-20T11:22:41;94746.63;;;16.85;51.02
20003;BME280;10162;41.600;23.806;2023-04-20T11:25:09;94709.66;;;16.35;50.67
20003;BME280;10162;41.600;23.806;2023-04-20T11:27:37;94723.13;;;17.27;47.90
20003;BME280;10162;41.600;23.806;2023-04-20T11:30:03;94744.84;;;16.58;49.26
20003;BME280;10162;41.600;23.806;2023-04-20T11:32:34;94734.38;;;17.40;48.29
20003;BME280;10162;41.600;23.806;2023-04-20T11:35:04;94721.22;;;17.23;49.03
20003;BME280;10162;41.600;23.806;2023-04-20T11:37:53;94707.22;;;17.22;50.52
20003;BME280;10162;41.600;23.806;2023-04-20T11:40:24;94727.69;;;17.75;49.38
20003;BME280;10162;41.600;23.806;2023-04-20T11:42:49;94714.63;;;17.64;50.49
20003;BME280;10162;41.600;23.806;2023-04-20T11:45:16;94707.34;;;17.32;47.93
20003;BME280;10162;41.600;23.806;2023-04-20T11:47:42;94729.50;;;17.10;51.15
20003;BME280;10162;41.600;23.806;2023-04-20T11:50:09;94716.31;;;16.71;50.69
20003;BME280;10162;41.600;23.806;2023-04-20T11:52:36;94717.09;;;16.55;51.66
20003;BME280;10162;41.600;23.806;2023-04-20T11:55:02;94728.13;;;16.52;52.53
20003;BME280;10162;41.600;23.806;2023-04-20T11:57:28;94726.78;;;16.16;52.32
20003;BME280;10162;41.600;23.806;2023-04-20T12:03:05;94708.06;;;16.18;53.77
20003;BME280;10162;41.600;23.806;2023-04-20T12:05:30;94722.16;;;16.23;53.62
20003;BME280;10162;41.600;23.806;2023-04-20T12:07:56;94721.56;;;16.04;48.44
20003;BME280;10162;41.600;23.806;2023-04-20T12:13:27;94731.84;;;16.34;47.35
20003;BME280;10162;41.600;23.806;2023-04-20T12:18:54;94723.84;;;16.63;49.71
20003;BME280;10162;41.600;23.806;2023-04-20T12:21:28;94698.63;;;17.10;51.33
20003;BME280;10162;41.600;23.806;2023-04-20T12:23:54;94722.03;;;17.45;47.71
20003;BME280;10162;41.600;23.806;2023-04-20T12:26:21;94721.97;;;16.97;47.13
20003;BME280;10162;41.600;23.806;2023-04-20T12:28:47;94715.63;;;16.98;46.82
20003;BME280;10162;41.600;23.806;2023-04-20T12:31:25;94708.19;;;16.94;46.66
20003;BME280;10162;41.600;23.806;2023-04-20T12:33:51;94714.06;;;17.62;46.83
20003;BME280;10162;41.600;23.806;2023-04-20T12:36:17;94698.78;;;17.96;47.05
20003;BME280;10162;41.600;23.806;2023-04-20T12:38:44;94698.19;;;17.89;46.04
20003;BME280;10162;41.600;23.806;2023-04-20T12:41:14;94681.44;;;18.05;45.23
20003;BME280;10162;41.600;23.806;2023-04-20T12:43:41;94688.88;;;18.77;44.58
20003;BME280;10162;41.600;23.806;2023-04-20T12:46:14;94681.88;;;19.08;45.29
20003;BME280;10162;41.600;23.806;2023-04-20T12:48:40;94703.75;;;18.88;45.35
20003;BME280;10162;41.600;23.806;2023-04-20T12:51:15;94693.03;;;18.36;45.33
20003;BME280;10162;41.600;23.806;2023-04-20T12:53:41;94692.09;;;18.52;45.10
20003;BME280;10162;41.600;23.806;2023-04-20T12:56:07;94681.41;;;17.51;47.52
20003;BME280;10162;41.600;23.806;2023-04-20T12:58:33;94661.63;;;17.32;48.11
20003;BME280;10162;41.600;23.806;2023-04-20T13:01:00;94662.72;;;17.58;48.40
20003;BME280;10162;41.600;23.806;2023-04-20T13:03:28;94680.97;;;17.38;47.96
20003;BME280;10162;41.600;23.806;2023-04-20T13:05:53;94678.66;;;16.98;47.30
20003;BME280;10162;41.600;23.806;2023-04-20T13:08:25;94660.25;;;17.03;48.94
20003;BME280;10162;41.600;23.806;2023-04-20T13:11:16;94681.03;;;16.99;48.34
20003;BME280;10162;41.600;23.806;2023-04-20T13:13:42;94681.31;;;17.19;47.51
20003;BME280;10162;41.600;23.806;2023-04-20T13:16:08;94664.88;;;16.74;46.69
20003;BME280;10162;41.600;23.806;2023-04-20T13:18:36;94672.00;;;16.57;47.97
20003;BME280;10162;41.600;23.806;2023-04-20T13:21:04;94695.38;;;16.65;47.13
20003;BME280;10162;41.600;23.806;2023-04-20T13:23:31;94659.00;;;17.10;47.96
20003;BME280;10162;41.600;23.806;2023-04-20T13:25:57;94668.97;;;17.25;47.60
20003;BME280;10162;41.600;23.806;2023-04-20T13:28:26;94680.38;;;17.09;49.49